Time;durP1;ratioP1;P1;durP2;ratioP2;P2;SDS_P1;SDS_P2;PMS_P1;PMS_P2;Temp;Humidity;BMP_temperature;BMP_pressure;BME280_temperature;BME280_humidity;BME280_pressure;Samples;Min_cycle;Max_cycle;Signal;HPM_P1;HPM_P2
2023/05/14 00:02:10;;;;;;;9.93;7.25;;;;;;;14.60;91.33;101827.38;5091987;28;20407;-72
2023/05/14 00:04:36;;;;;;;11.20;8.07;;;;;;;14.59;92.55;101834.63;5091904;28;20059;-72
2023/05/14 00:07:01;;;;;;;13.90;7.88;;;;;;;14.55;93.84;101829.84;5092015;28;20032;-72
2023/05/14 00:09:26;;;;;;;15.43;8.63;;;;;;;14.52;96.23;101822.16;5091977;28;20027;-72
2023/05/14 00:11:52;;;;;;;12.98;8.50;;;;;;;14.46;93.42;101823.75;5091677;28;20123;-72
2023/05/14 00:14:18;;;;;;;11.15;8.27;;;;;;;14.39;93.18;101823.72;5091765;28;20097;-72
2023/05/14 00:16:44;;;;;;;12.85;8.45;;;;;;;14.29;95.25;101811.72;5090283;28;20048;-72
2023/05/14 00:19:09;;;;;;;13.20;8.88;;;;;;;14.23;95.51;101810.66;5091957;28;20798;-72
2023/05/14 00:21:35;;;;;;;13.95;8.30;;;;;;;14.28;93.08;101823.44;5091875;28;20106;-72
2023/05/14 00:24:00;;;;;;;13.65;8.70;;;;;;;14.25;92.35;101812.09;5091661;28;20411;-72
2023/05/14 00:26:25;;;;;;;12.38;8.77;;;;;;;14.31;91.66;101821.22;5091649;28;20479;-72
2023/05/14 00:28:51;;;;;;;14.18;8.43;;;;;;;14.29;92.13;101814.38;5091489;28;20540;-72
2023/05/14 00:31:16;;;;;;;12.80;8.07;;;;;;;14.27;91.33;101805.69;5091345;28;20064;-72
2023/05/14 00:33:41;;;;;;;12.68;8.65;;;;;;;14.30;92.18;101819.53;5091374;28;20788;-72
2023/05/14 00:36:07;;;;;;;13.43;8.55;;;;;;;14.28;92.47;101818.06;5090036;28;20451;-72
2023/05/14 00:38:32;;;;;;;14.20;9.55;;;;;;;14.23;92.00;101814.16;5091230;28;20506;-72
2023/05/14 00:40:58;;;;;;;15.82;9.05;;;;;;;14.21;92.02;101810.81;5091118;28;20115;-72
2023/05/14 00:43:24;;;;;;;14.95;8.45;;;;;;;14.15;91.62;101802.75;5090936;28;20064;-72
2023/05/14 00:45:52;;;;;;;11.60;8.20;;;;;;;14.17;91.91;101809.59;5091253;28;20055;-72
2023/05/14 00:48:18;;;;;;;15.02;10.20;;;;;;;14.12;92.01;101808.50;5090137;28;20039;-72
2023/05/14 00:50:44;;;;;;;17.00;10.15;;;;;;;14.09;92.02;101798.97;5091138;28;20028;-72
2023/05/14 00:53:10;;;;;;;12.73;9.18;;;;;;;14.08;92.78;101797.34;5091115;28;20540;-72
2023/05/14 00:55:37;;;;;;;17.42;9.43;;;;;;;14.03;92.84;101799.78;5091028;28;20034;-72
2023/05/14 00:58:06;;;;;;;15.45;9.60;;;;;;;14.02;92.33;101793.59;5090901;28;20028;-72
2023/05/14 01:00:32;;;;;;;13.48;9.57;;;;;;;13.98;92.82;101786.13;5090972;28;20027;-72
2023/05/14 01:03:00;;;;;;;15.05;9.27;;;;;;;13.94;93.02;101791.06;5090793;28;20111;-72
2023/05/14 01:05:30;;;;;;;13.68;9.07;;;;;;;13.91;93.20;101804.88;5089546;28;20028;-72
2023/05/14 01:08:28;;;;;;;14.45;9.68;;;;;;;13.93;92.12;101799.28;5090828;28;20024;-72
2023/05/14 01:11:08;;;;;;;15.00;9.63;;;;;;;13.87;93.06;101795.53;5057376;28;20048;-72
2023/05/14 01:13:59;;;;;;;15.30;10.57;;;;;;;13.87;93.16;101784.81;5090320;28;20044;-72
2023/05/14 01:16:26;;;;;;;15.95;10.23;;;;;;;13.79;93.77;101796.50;5068468;28;20070;-72
2023/05/14 01:18:55;;;;;;;16.90;10.90;;;;;;;13.69;93.86;101787.16;5090759;28;20106;-72
2023/05/14 01:21:33;;;;;;;15.95;10.18;;;;;;;13.74;93.29;101793.59;5089409;28;20035;-72
2023/05/14 01:23:59;;;;;;;15.85;10.90;;;;;;;13.70;94.11;101778.06;5090223;28;20032;-72
2023/05/14 01:26:24;;;;;;;16.55;10.68;;;;;;;13.69;94.07;101787.97;5090410;28;20538;-72
2023/05/14 01:28:51;;;;;;;14.90;10.07;;;;;;;13.67;94.10;101790.00;5089159;28;20067;-72
2023/05/14 01:31:23;;;;;;;17.85;10.30;;;;;;;13.57;94.57;101781.47;5090233;28;20368;-72
2023/05/14 01:33:50;;;;;;;22.17;10.57;;;;;;;13.58;94.71;101785.81;5090909;28;20445;-71
2023/05/14 01:36:15;;;;;;;18.65;11.75;;;;;;;13.57;94.58;101785.00;5090117;28;20035;-71
2023/05/14 01:38:44;;;;;;;17.13;10.10;;;;;;;13.54;95.06;101787.22;5088767;28;20040;-71
2023/05/14 01:41:11;;;;;;;17.40;10.55;;;;;;;13.46;95.42;101780.16;5090117;28;20039;-71
2023/05/14 01:43:37;;;;;;;16.83;10.52;;;;;;;13.47;95.93;101776.47;5090028;28;20135;-71
2023/05/14 01:46:03;;;;;;;17.38;11.45;;;;;;;13.39;95.74;101771.25;5089934;28;20089;-71
2023/05/14 01:48:29;;;;;;;16.00;11.05;;;;;;;13.32;96.25;101765.81;5089924;28;20036;-71
2023/05/14 01:50:54;;;;;;;16.13;9.80;;;;;;;13.33;96.60;101778.16;5089869;28;20074;-71
2023/05/14 01:53:19;;;;;;;17.45;10.90;;;;;;;13.29;96.97;101784.13;5089818;28;20028;-71
2023/05/14 01:55:45;;;;;;;21.77;11.18;;;;;;;13.28;96.75;101788.66;5089830;28;20506;-71
2023/05/14 01:58:10;;;;;;;16.05;10.88;;;;;;;13.24;98.15;101784.66;5089760;28;20036;-71
2023/05/14 02:00:37;;;;;;;15.77;9.68;;;;;;;13.24;97.01;101786.53;5089581;28;20039;-71
2023/05/14 02:03:02;;;;;;;16.48;10.23;;;;;;;13.20;97.00;101782.56;5089837;28;20024;-72
2023/05/14 02:05:28;;;;;;;17.15;10.77;;;;;;;13.15;97.85;101778.63;5089667;28;20088;-72
2023/05/14 02:07:53;;;;;;;17.48;10.40;;;;;;;13.11;98.50;101771.97;5089679;28;20032;-72
2023/05/14 02:10:18;;;;;;;18.88;11.50;;;;;;;13.11;98.41;101774.66;5089242;28;20039;-72
2023/05/14 02:12:44;;;;;;;18.42;12.10;;;;;;;13.06;98.60;101774.38;5088166;28;20511;-72
2023/05/14 02:15:09;;;;;;;18.23;11.52;;;;;;;13.06;99.36;101777.06;5089446;28;20027;-72
2023/05/14 02:17:35;;;;;;;18.58;12.48;;;;;;;12.99;99.92;101768.13;5089538;28;20027;-72
2023/05/14 02:20:00;;;;;;;18.88;11.15;;;;;;;12.94;100.00;101767.84;5089640;28;20038;-72
2023/05/14 02:22:26;;;;;;;19.85;11.43;;;;;;;12.93;100.00;101763.53;5089379;28;20103;-72
2023/05/14 02:24:51;;;;;;;17.38;11.45;;;;;;;12.89;100.00;101759.56;5088070;28;20028;-72
2023/05/14 02:27:16;;;;;;;17.63;11.75;;;;;;;12.87;100.00;101753.59;5089324;28;20032;-72
2023/05/14 02:29:42;;;;;;;20.70;12.68;;;;;;;12.89;100.00;101764.91;5089326;28;20390;-72
2023/05/14 02:32:07;;;;;;;20.17;13.43;;;;;;;12.81;100.00;101763.22;5089405;28;20024;-72
2023/05/14 02:34:33;;;;;;;20.55;13.50;;;;;;;12.81;100.00;101765.91;5088167;28;20661;-72
2023/05/14 02:36:58;;;;;;;17.83;11.85;;;;;;;12.81;100.00;101767.72;5087863;28;20036;-72
2023/05/14 02:39:24;;;;;;;20.13;12.23;;;;;;;12.78;100.00;101754.72;5089277;28;20043;-72
2023/05/14 02:41:49;;;;;;;22.88;12.35;;;;;;;12.72;100.00;101767.84;5089310;28;20023;-72
2023/05/14 02:44:14;;;;;;;19.45;12.70;;;;;;;12.64;100.00;101754.56;5089202;28;20055;-72
2023/05/14 02:46:40;;;;;;;18.85;12.43;;;;;;;12.53;100.00;101752.38;5089255;28;20050;-72
2023/05/14 02:49:05;;;;;;;18.58;12.07;;;;;;;12.52;100.00;101757.91;5089319;28;20047;-72
2023/05/14 02:51:31;;;;;;;25.38;14.07;;;;;;;12.53;100.00;101762.25;5089213;28;20070;-72
2023/05/14 02:53:56;;;;;;;19.80;12.18;;;;;;;12.52;100.00;101771.28;5089126;28;20205;-72
2023/05/14 02:56:21;;;;;;;19.42;12.00;;;;;;;12.50;100.00;101768.81;5089192;28;20039;-72
2023/05/14 02:58:47;;;;;;;18.70;11.57;;;;;;;12.49;100.00;101772.50;5089578;28;20109;-72
2023/05/14 03:01:12;;;;;;;20.83;12.85;;;;;;;12.45;100.00;101768.53;5089091;28;20055;-72
2023/05/14 03:03:38;;;;;;;22.00;14.23;;;;;;;12.43;100.00;101759.88;5089008;28;20032;-72
2023/05/14 03:06:04;;;;;;;20.40;12.65;;;;;;;12.41;100.00;101756.53;5087863;28;20032;-72
2023/05/14 03:08:29;;;;;;;19.10;12.23;;;;;;;12.37;100.00;101756.09;5089107;28;20103;-72
2023/05/14 03:10:54;;;;;;;20.08;13.43;;;;;;;12.36;100.00;101761.63;5089037;28;20220;-72
2023/05/14 03:13:20;;;;;;;20.63;12.45;;;;;;;12.29;100.00;101758.88;5092603;28;20055;-72
2023/05/14 03:15:46;;;;;;;20.80;13.55;;;;;;;12.24;100.00;101759.41;5092844;28;20097;-72
2023/05/14 03:18:12;;;;;;;19.88;12.38;;;;;;;12.21;100.00;101751.78;5092870;28;20115;-72
2023/05/14 03:20:37;;;;;;;21.60;13.15;;;;;;;12.16;100.00;101746.16;5093110;28;20127;-72
2023/05/14 03:23:03;;;;;;;20.67;11.82;;;;;;;12.16;100.00;101746.16;5092665;28;20119;-72
2023/05/14 03:25:28;;;;;;;18.98;12.43;;;;;;;12.13;100.00;101748.34;5091269;28;20046;-72
2023/05/14 03:27:54;;;;;;;22.30;13.60;;;;;;;12.05;100.00;101736.75;5092724;28;20028;-72
2023/05/14 03:30:19;;;;;;;20.88;13.20;;;;;;;12.09;100.00;101745.22;5092831;28;20042;-72
2023/05/14 03:32:44;;;;;;;19.60;12.23;;;;;;;11.93;100.00;101729.38;5091175;28;20127;-72
2023/05/14 03:35:10;;;;;;;20.02;13.23;;;;;;;11.93;100.00;101738.22;5092689;28;20140;-72
2023/05/14 03:37:35;;;;;;;19.15;12.55;;;;;;;11.88;100.00;101743.28;5092563;28;20032;-72
2023/05/14 03:40:01;;;;;;;21.17;12.30;;;;;;;11.88;100.00;101737.09;5092517;28;20027;-72
2023/05/14 03:42:26;;;;;;;23.85;12.52;;;;;;;11.85;100.00;101743.63;5091102;28;20078;-72
2023/05/14 03:44:52;;;;;;;20.98;13.27;;;;;;;11.68;100.00;101726.06;5091203;28;20096;-72
2023/05/14 03:47:17;;;;;;;21.02;13.52;;;;;;;11.77;100.00;101741.03;5092323;28;20028;-72
2023/05/14 03:49:42;;;;;;;21.75;13.23;;;;;;;11.67;100.00;101735.94;5092329;28;20101;-72
2023/05/14 03:52:08;;;;;;;21.20;14.10;;;;;;;11.68;100.00;101739.44;5092281;28;20023;-72
2023/05/14 03:54:33;;;;;;;27.45;13.50;;;;;;;11.67;100.00;101737.78;5092273;28;20055;-72
2023/05/14 03:56:58;;;;;;;21.48;14.70;;;;;;;11.69;100.00;101743.78;5092234;28;20028;-72
2023/05/14 03:59:24;;;;;;;21.88;14.35;;;;;;;11.71;100.00;101741.75;5073446;28;20047;-72
2023/05/14 04:01:49;;;;;;;21.95;11.98;;;;;;;11.70;100.00;101738.25;5090621;28;20035;-72
2023/05/14 04:04:15;;;;;;;21.92;13.13;;;;;;;11.69;100.00;101738.44;5092027;28;20086;-72
2023/05/14 04:06:40;;;;;;;21.77;14.07;;;;;;;11.69;100.00;101733.09;5091904;28;20115;-72
2023/05/14 04:09:05;;;;;;;21.15;13.48;;;;;;;11.66;100.00;101738.78;5092006;28;20040;-72
2023/05/14 04:11:31;;;;;;;21.23;13.27;;;;;;;11.55;100.00;101724.03;5091891;28;20065;-72
2023/05/14 04:13:56;;;;;;;22.45;14.48;;;;;;;11.60;100.00;101737.66;5091582;28;20495;-72
2023/05/14 04:16:21;;;;;;;24.05;14.73;;;;;;;11.65;100.00;101737.13;5091443;28;20088;-72
2023/05/14 04:18:47;;;;;;;24.33;14.35;;;;;;;11.65;100.00;101729.94;5090254;28;20035;-72
2023/05/14 04:21:12;;;;;;;21.98;14.32;;;;;;;11.63;100.00;101727.47;5091673;28;20038;-72
2023/05/14 04:23:37;;;;;;;23.25;13.35;;;;;;;11.68;100.00;101736.75;5090127;28;20039;-72
2023/05/14 04:26:04;;;;;;;23.83;15.23;;;;;;;11.74;100.00;101736.06;5091580;28;20063;-72
2023/05/14 04:28:29;;;;;;;23.55;14.18;;;;;;;11.65;100.00;101729.94;5090191;28;20039;-72
2023/05/14 04:30:55;;;;;;;25.58;13.75;;;;;;;11.69;100.00;101733.09;5091733;28;20032;-72
2023/05/14 04:33:20;;;;;;;22.73;14.10;;;;;;;11.77;100.00;101736.50;5091406;28;20091;-72
2023/05/14 04:35:46;;;;;;;21.40;14.50;;;;;;;11.78;100.00;101740.00;5090135;28;20123;-72
2023/05/14 04:38:13;;;;;;;22.98;14.98;;;;;;;11.83;100.00;101726.94;5091281;28;20028;-72
2023/05/14 04:40:38;;;;;;;22.17;13.20;;;;;;;11.88;100.00;101731.75;5091311;28;20035;-72
2023/05/14 04:43:03;;;;;;;25.10;15.07;;;;;;;11.97;100.00;101723.47;5091091;28;20024;-72
2023/05/14 04:45:29;;;;;;;23.40;14.05;;;;;;;12.47;100.00;101729.03;5089849;28;20040;-71
2023/05/14 04:47:54;;;;;;;24.38;13.70;;;;;;;12.85;100.00;101731.53;5090964;28;20099;-71
2023/05/14 04:50:20;;;;;;;21.52;14.27;;;;;;;13.14;100.00;101727.91;5090978;28;20024;-71
2023/05/14 04:52:45;;;;;;;22.02;14.05;;;;;;;13.33;100.00;101727.25;5090977;28;20506;-71
2023/05/14 04:55:10;;;;;;;24.58;15.65;;;;;;;13.49;100.00;101734.22;5090949;28;20067;-71
2023/05/14 04:57:36;;;;;;;22.42;14.05;;;;;;;13.49;100.00;101738.72;5089320;28;20043;-71
2023/05/14 05:00:04;;;;;;;21.58;14.30;;;;;;;13.44;100.00;101735.81;5090844;28;20089;-71
2023/05/14 05:02:29;;;;;;;26.02;15.52;;;;;;;13.42;100.00;101745.91;5089370;28;20082;-71
2023/05/14 05:04:55;;;;;;;25.40;13.23;;;;;;;13.21;100.00;101738.69;5090751;28;20025;-71
2023/05/14 05:07:20;;;;;;;22.15;12.38;;;;;;;13.02;100.00;101748.16;5090770;28;20057;-71
2023/05/14 05:09:45;;;;;;;22.65;13.57;;;;;;;12.83;100.00;101753.13;5090660;28;20057;-71
2023/05/14 05:12:11;;;;;;;22.38;13.88;;;;;;;12.71;100.00;101749.31;5090478;28;20031;-71
2023/05/14 05:14:36;;;;;;;23.63;13.68;;;;;;;12.64;100.00;101743.84;5090624;28;20028;-71
2023/05/14 05:17:01;;;;;;;22.95;13.40;;;;;;;12.57;100.00;101745.63;5090530;28;20032;-71
2023/05/14 05:19:27;;;;;;;21.17;12.82;;;;;;;12.63;100.00;101752.09;5090371;28;20038;-71
2023/05/14 05:21:52;;;;;;;23.08;14.27;;;;;;;12.69;100.00;101759.34;5090366;28;20027;-71
2023/05/14 05:24:18;;;;;;;26.27;15.48;;;;;;;12.88;100.00;101756.06;5090396;28;20032;-71
2023/05/14 05:26:43;;;;;;;26.50;14.45;;;;;;;13.13;100.00;101743.16;5090387;28;20097;-71
2023/05/14 05:29:08;;;;;;;24.48;13.48;;;;;;;13.55;100.00;101749.53;5088925;28;20039;-71
2023/05/14 05:31:34;;;;;;;22.75;13.35;;;;;;;13.94;99.33;101744.66;5090207;28;20071;-71
2023/05/14 05:33:59;;;;;;;22.27;13.20;;;;;;;14.00;96.64;101741.16;5089734;28;20056;-71
2023/05/14 05:36:26;;;;;;;27.20;15.98;;;;;;;14.12;96.44;101753.00;5088709;28;20051;-71
2023/05/14 05:38:51;;;;;;;23.45;13.00;;;;;;;14.03;95.79;101741.59;5090207;28;20034;-71
2023/05/14 05:41:17;;;;;;;21.95;13.00;;;;;;;13.85;98.30;101740.44;5090024;28;20036;-71
2023/05/14 05:43:42;;;;;;;21.73;14.25;;;;;;;13.89;97.72;101758.63;5089910;28;20030;-71
2023/05/14 05:46:07;;;;;;;21.02;13.02;;;;;;;13.66;97.25;101747.34;5089986;28;20070;-71
2023/05/14 05:48:33;;;;;;;24.42;13.95;;;;;;;13.57;98.97;101749.31;5089947;28;20633;-71
2023/05/14 05:50:58;;;;;;;29.88;16.20;;;;;;;13.51;99.87;101742.06;5089976;28;20487;-71
2023/05/14 05:53:24;;;;;;;22.42;13.90;;;;;;;13.42;99.15;101745.91;5089974;28;20028;-71
2023/05/14 05:55:52;;;;;;;23.00;14.10;;;;;;;13.42;100.00;101741.38;5089671;28;20098;-71
2023/05/14 05:58:18;;;;;;;25.33;14.05;;;;;;;13.37;99.65;101749.16;5089758;28;20043;-71
2023/05/14 06:00:44;;;;;;;23.02;13.85;;;;;;;13.36;99.74;101755.53;5089674;28;20508;-71
2023/05/14 06:03:10;;;;;;;21.92;13.93;;;;;;;13.31;100.00;101748.09;5089602;28;20046;-71
2023/05/14 06:05:35;;;;;;;22.73;14.40;;;;;;;13.38;100.00;101759.66;5089641;28;20016;-71
2023/05/14 06:08:01;;;;;;;23.75;14.30;;;;;;;13.43;100.00;101755.59;5089675;28;20035;-71
2023/05/14 06:10:26;;;;;;;25.63;14.18;;;;;;;13.52;100.00;101768.66;5089538;28;20039;-71
2023/05/14 06:12:51;;;;;;;23.52;14.15;;;;;;;13.62;100.00;101772.84;5089564;28;20438;-71
2023/05/14 06:15:17;;;;;;;22.52;13.65;;;;;;;13.73;100.00;101764.31;5089515;28;20039;-71
2023/05/14 06:17:42;;;;;;;21.23;13.77;;;;;;;13.85;99.17;101768.09;5089556;28;20143;-71
2023/05/14 06:20:08;;;;;;;21.77;13.05;;;;;;;13.90;98.59;101762.97;5089511;28;20161;-71
2023/05/14 06:22:34;;;;;;;22.40;12.85;;;;;;;13.95;98.71;101776.63;5089315;28;20504;-71
2023/05/14 06:24:59;;;;;;;23.17;13.80;;;;;;;13.93;98.76;101748.34;5089245;28;20032;-70
2023/05/14 06:27:25;;;;;;;21.60;12.38;;;;;;;13.93;98.76;101770.59;5089388;28;20020;-69
2023/05/14 06:29:50;;;;;;;20.40;12.50;;;;;;;13.83;98.60;101772.81;5089136;28;20039;-71
2023/05/14 06:32:16;;;;;;;19.15;11.90;;;;;;;13.79;98.61;101774.25;5089189;28;20063;-71
2023/05/14 06:34:42;;;;;;;21.73;12.50;;;;;;;13.73;98.99;101772.34;5089318;28;20032;-72
2023/05/14 06:37:08;;;;;;;20.48;12.93;;;;;;;13.76;99.31;101778.13;5089311;28;20069;-72
2023/05/14 06:39:37;;;;;;;23.88;14.15;;;;;;;13.72;100.00;101776.84;5089177;28;20024;-71
2023/05/14 06:42:03;;;;;;;22.90;14.43;;;;;;;13.67;99.82;101776.59;5087982;28;20118;-72
2023/05/14 06:44:28;;;;;;;23.20;13.88;;;;;;;13.73;100.00;101775.84;5087760;28;20112;-71
2023/05/14 06:46:54;;;;;;;22.35;13.65;;;;;;;13.73;99.49;101773.16;5088136;28;20054;-71
2023/05/14 06:49:20;;;;;;;21.33;12.45;;;;;;;13.84;99.60;101768.28;5090573;28;20067;-72
2023/05/14 06:51:45;;;;;;;19.77;12.43;;;;;;;13.94;99.61;101768.78;5092917;28;20059;-72
2023/05/14 06:54:11;;;;;;;21.42;13.95;;;;;;;13.93;98.95;101775.97;5092828;28;20501;-72
2023/05/14 06:56:36;;;;;;;22.73;14.55;;;;;;;13.93;99.37;101765.25;5092726;28;20463;-72
2023/05/14 06:59:01;;;;;;;21.88;13.70;;;;;;;13.96;98.88;101766.72;5092836;28;20032;-72
2023/05/14 07:01:27;;;;;;;22.65;13.57;;;;;;;13.96;99.29;101770.25;5074777;28;20028;-72
2023/05/14 07:03:52;;;;;;;25.60;14.25;;;;;;;14.10;99.60;101775.69;5092629;28;20030;-72
2023/05/14 07:06:18;;;;;;;21.10;12.85;;;;;;;14.18;98.52;101765.63;5092296;28;20028;-71
2023/05/14 07:08:46;;;;;;;22.77;12.73;;;;;;;14.27;96.21;101768.97;5091102;28;20491;-71
2023/05/14 07:11:12;;;;;;;22.65;13.30;;;;;;;14.33;98.15;101765.50;5091448;28;20429;-71
2023/05/14 07:13:37;;;;;;;24.10;13.52;;;;;;;14.44;97.87;101769.47;5091917;28;20040;-73
2023/05/14 07:16:03;;;;;;;25.65;13.50;;;;;;;14.44;96.25;101762.25;5092187;28;20478;-73
2023/05/14 07:18:29;;;;;;;23.75;13.85;;;;;;;14.50;96.27;101763.28;5092289;28;20487;-73
2023/05/14 07:20:55;;;;;;;23.48;13.63;;;;;;;14.58;98.57;101765.00;5092272;28;20040;-73
2023/05/14 07:23:20;;;;;;;22.00;14.20;;;;;;;14.59;96.75;101769.34;5092268;28;20524;-73
2023/05/14 07:25:45;;;;;;;24.02;12.48;;;;;;;14.57;95.04;101771.41;5092305;28;20063;-73
2023/05/14 07:28:11;;;;;;;23.10;13.60;;;;;;;14.56;96.65;101769.75;5092431;28;20036;-73
2023/05/14 07:30:36;;;;;;;21.52;13.52;;;;;;;14.69;97.64;101773.28;5073936;28;20475;-73
2023/05/14 07:33:02;;;;;;;25.33;14.40;;;;;;;14.80;96.41;101761.16;5092108;28;20122;-73
2023/05/14 07:35:27;;;;;;;23.83;12.23;;;;;;;14.76;95.30;101762.59;5092257;28;20016;-73
2023/05/14 07:37:52;;;;;;;23.42;14.82;;;;;;;14.78;94.97;101763.22;5092069;28;20491;-73
2023/05/14 07:40:18;;;;;;;26.40;15.05;;;;;;;14.80;96.47;101746.88;5092041;28;20028;-73
2023/05/14 07:42:43;;;;;;;23.42;13.38;;;;;;;14.91;97.25;101762.44;5091275;28;20035;-72
2023/05/14 07:45:09;;;;;;;23.77;15.02;;;;;;;14.94;98.51;101753.16;5092492;28;20036;-73
2023/05/14 07:47:34;;;;;;;22.40;13.90;;;;;;;15.02;97.60;101759.16;5067420;28;20785;-73
2023/05/14 07:50:00;;;;;;;23.33;14.98;;;;;;;15.09;97.03;101760.00;5091180;28;20096;-73
2023/05/14 07:52:25;;;;;;;22.33;14.63;;;;;;;15.24;96.90;101758.97;5092132;28;20032;-73
2023/05/14 07:54:51;;;;;;;21.67;14.07;;;;;;;15.42;95.19;101752.97;5092046;28;20616;-73
2023/05/14 07:57:17;;;;;;;23.20;15.70;;;;;;;15.64;93.53;101750.91;5091594;28;20028;-73
2023/05/14 07:59:42;;;;;;;24.48;15.38;;;;;;;15.74;93.47;101752.16;5092079;28;20081;-73
2023/05/14 08:02:11;;;;;;;37.08;15.52;;;;;;;15.82;95.22;101743.03;5090791;28;20036;-73
2023/05/14 08:04:37;;;;;;;22.90;15.00;;;;;;;15.94;94.99;101756.69;5091899;28;20571;-73
2023/05/14 08:07:03;;;;;;;23.52;15.00;;;;;;;16.42;91.78;101753.66;5091799;28;20106;-73
2023/05/14 08:09:28;;;;;;;24.27;15.18;;;;;;;16.83;89.14;101752.47;5091937;28;20036;-73
2023/05/14 08:11:54;;;;;;;20.33;13.48;;;;;;;18.32;85.51;101756.16;5090684;28;20031;-72
2023/05/14 08:14:20;;;;;;;24.70;14.50;;;;;;;20.18;74.25;101749.75;5091824;28;20091;-73
2023/05/14 08:16:46;;;;;;;20.35;12.90;;;;;;;21.59;68.26;101753.72;5091338;28;20566;-73
2023/05/14 08:19:13;;;;;;;22.88;15.18;;;;;;;22.23;64.94;101761.41;5085947;28;20078;-75
2023/05/14 08:21:39;;;;;;;23.30;14.13;;;;;;;23.43;61.98;101763.22;5082019;28;20111;-73
2023/05/14 08:24:05;;;;;;;19.52;11.73;;;;;;;24.39;56.77;101762.13;5083218;28;20446;-73
2023/05/14 08:26:30;;;;;;;20.95;12.13;;;;;;;24.69;55.31;101764.16;5081484;28;20023;-73
2023/05/14 08:28:55;;;;;;;21.50;11.52;;;;;;;24.87;54.05;101760.09;5083112;28;20031;-72
2023/05/14 08:31:21;;;;;;;19.45;12.25;;;;;;;25.18;51.54;101769.19;5082542;28;20119;-73
2023/05/14 08:33:46;;;;;;;19.73;11.45;;;;;;;25.66;51.46;101763.41;5080824;28;20093;-73
2023/05/14 08:36:12;;;;;;;20.63;11.80;;;;;;;26.21;49.89;101758.91;5082515;28;20520;-73
2023/05/14 08:38:38;;;;;;;18.42;11.35;;;;;;;26.75;48.59;101762.72;5083098;28;20077;-73
2023/05/14 08:41:05;;;;;;;19.65;11.82;;;;;;;26.70;47.34;101755.41;5083020;28;20024;-73
2023/05/14 08:44:12;;;;;;;22.20;12.05;;;;;;;26.85;49.90;101759.94;5083428;28;20039;-73
2023/05/14 08:46:37;;;;;;;18.77;11.50;;;;;;;26.67;46.47;101758.69;5081786;28;20058;-73
2023/05/14 08:49:12;;;;;;;19.95;11.45;;;;;;;26.92;49.36;101749.47;5083777;28;20055;-73
2023/05/14 08:51:38;;;;;;;17.80;11.98;;;;;;;26.80;46.69;101751.75;5082771;28;20035;-72
2023/05/14 08:54:04;;;;;;;17.92;11.55;;;;;;;25.84;47.08;101756.53;5082889;28;20008;-79
2023/05/14 08:56:32;;;;;;;19.23;12.93;;;;;;;24.02;49.80;101752.16;5083598;28;20032;-79
2023/05/14 08:58:57;;;;;;;20.17;11.60;;;;;;;22.72;52.26;101756.00;5082746;28;20099;-79
2023/05/14 09:01:24;;;;;;;16.17;10.55;;;;;;;21.99;57.58;101744.50;5083265;28;20486;-79
2023/05/14 09:03:51;;;;;;;18.65;10.25;;;;;;;21.34;59.61;101738.63;5082840;28;20027;-79
2023/05/14 09:06:18;;;;;;;18.17;11.25;;;;;;;20.72;60.89;101733.22;5081145;28;20020;-80
2023/05/14 09:08:43;;;;;;;19.50;11.90;;;;;;;20.18;61.12;101727.25;5081873;28;20432;-82
2023/05/14 09:11:08;;;;;;;23.52;11.45;;;;;;;19.68;63.89;101739.44;5078237;28;20138;-80
2023/05/14 09:13:37;;;;;;;18.35;10.77;;;;;;;19.49;64.74;101722.44;5083192;28;20059;-81
2023/05/14 09:16:03;;;;;;;19.25;11.85;;;;;;;19.22;66.23;101722.06;5083621;28;20040;-75
2023/05/14 09:18:28;;;;;;;19.58;11.93;;;;;;;19.25;67.30;101729.72;5084072;28;20028;-75
2023/05/14 09:20:54;;;;;;;20.35;11.98;;;;;;;19.25;70.63;101724.31;5082060;28;20028;-75
2023/05/14 09:23:20;;;;;;;27.38;12.40;;;;;;;19.26;69.74;101720.56;5083244;28;20084;-78
2023/05/14 09:25:46;;;;;;;19.95;11.60;;;;;;;19.03;70.47;101713.22;5081313;28;20016;-79
2023/05/14 09:28:17;;;;;;;19.50;11.68;;;;;;;18.94;68.90;101710.06;5078936;28;20027;-79
2023/05/14 09:30:49;;;;;;;23.63;13.15;;;;;;;19.04;69.88;101714.88;5080481;28;20050;-79
2023/05/14 09:33:25;;;;;;;19.10;12.68;;;;;;;19.20;69.75;101716.06;5084048;28;20028;-70
2023/05/14 09:35:50;;;;;;;20.63;10.68;;;;;;;19.12;69.84;101708.31;5084340;28;20028;-70
2023/05/14 09:38:15;;;;;;;20.00;11.77;;;;;;;18.99;69.01;101707.47;5084647;28;20084;-70
2023/05/14 09:40:41;;;;;;;20.35;11.77;;;;;;;19.20;70.15;101707.97;5083564;28;20020;-70
2023/05/14 09:43:07;;;;;;;20.40;11.68;;;;;;;19.32;69.92;101710.69;5083929;28;20177;-70
2023/05/14 09:45:34;;;;;;;20.45;12.05;;;;;;;19.37;70.68;101708.13;5083800;28;20035;-70
2023/05/14 09:48:00;;;;;;;19.75;12.32;;;;;;;19.45;71.50;101700.47;5083403;28;20463;-70
2023/05/14 09:50:25;;;;;;;19.95;11.48;;;;;;;19.55;68.82;101702.59;5083221;28;20051;-70
2023/05/14 09:52:54;;;;;;;20.90;11.98;;;;;;;19.57;69.43;101696.91;5083489;28;20673;-70
2023/05/14 09:55:20;;;;;;;17.27;10.75;;;;;;;19.64;66.90;101694.94;5084262;28;20451;-70
2023/05/14 09:57:45;;;;;;;16.85;10.38;;;;;;;19.69;66.68;101698.59;5083909;28;20039;-70
2023/05/14 10:00:11;;;;;;;16.50;10.45;;;;;;;19.82;68.65;101702.13;5083251;28;20039;-70
2023/05/14 10:02:39;;;;;;;18.08;10.35;;;;;;;19.91;65.64;101697.97;5083543;28;20074;-70
2023/05/14 10:05:06;;;;;;;17.83;10.98;;;;;;;19.99;68.45;101686.78;5083567;28;20042;-70
2023/05/14 10:07:40;;;;;;;16.63;10.18;;;;;;;20.08;66.15;101685.34;5083018;28;20422;-70
2023/05/14 10:10:07;;;;;;;20.77;10.45;;;;;;;20.21;66.97;101696.97;5083404;28;20019;-70
2023/05/14 10:12:37;;;;;;;16.95;10.60;;;;;;;20.30;68.26;101693.66;5083535;28;20062;-70
2023/05/14 10:15:09;;;;;;;16.33;9.35;;;;;;;20.31;67.66;101684.47;5082938;28;20460;-70
2023/05/14 10:17:39;;;;;;;21.30;10.50;;;;;;;20.24;66.94;101677.53;5083346;28;20101;-70
2023/05/14 10:20:08;;;;;;;18.23;10.80;;;;;;;20.41;68.44;101681.13;5082796;28;20020;-70
2023/05/14 10:22:34;;;;;;;17.60;10.10;;;;;;;20.43;72.08;101678.16;5083020;28;20037;-70
2023/05/14 10:25:01;;;;;;;17.15;10.02;;;;;;;20.47;73.16;101677.44;5082195;28;20048;-70
2023/05/14 10:27:27;;;;;;;16.08;10.70;;;;;;;20.55;67.46;101671.66;5083243;28;20028;-70
2023/05/14 10:29:54;;;;;;;17.25;10.63;;;;;;;20.63;67.94;101672.34;5083079;28;20035;-70
2023/05/14 10:32:22;;;;;;;17.75;10.68;;;;;;;20.71;73.99;101667.31;5082960;28;20027;-70
2023/05/14 10:34:48;;;;;;;17.88;10.38;;;;;;;20.77;73.67;101668.22;5083198;28;20047;-70
2023/05/14 10:37:17;;;;;;;16.70;10.27;;;;;;;20.64;65.76;101665.84;5083315;28;20439;-70
2023/05/14 10:39:43;;;;;;;20.05;10.38;;;;;;;20.64;67.52;101663.13;5082766;28;20110;-71
2023/05/14 10:42:15;;;;;;;19.13;11.68;;;;;;;20.76;66.00;101662.00;5082711;28;20027;-70
2023/05/14 10:45:08;;;;;;;14.52;9.43;;;;;;;20.88;66.42;101658.38;5082378;28;20055;-70
2023/05/14 10:47:36;;;;;;;14.80;9.60;;;;;;;20.84;63.36;101666.19;5079071;28;20109;-70
2023/05/14 10:50:04;;;;;;;14.82;9.40;;;;;;;20.91;65.31;101658.72;5081476;28;20032;-70
2023/05/14 10:52:30;;;;;;;18.13;10.52;;;;;;;21.00;70.86;101646.38;5081755;28;20379;-70
2023/05/14 10:54:58;;;;;;;19.58;10.48;;;;;;;21.04;65.66;101648.59;5082005;28;20391;-70
2023/05/14 10:57:26;;;;;;;24.80;11.15;;;;;;;21.05;63.98;101642.13;5083297;28;20028;-70
2023/05/14 10:59:53;;;;;;;14.98;8.70;;;;;;;21.12;63.98;101645.50;5081625;28;20063;-70
2023/05/14 11:02:24;;;;;;;15.35;9.23;;;;;;;21.20;63.51;101643.19;5083562;28;20102;-70
2023/05/14 11:05:02;;;;;;;15.65;9.75;;;;;;;21.28;65.67;101644.66;5082610;28;20081;-70